Latest Weather Observations for Nowra

IDN60801

Issued at 10:03 pm EST Sunday 25 June 2017 (issued every 30 minutes, with the page automatically refreshed every 10 minutes)

About weather observations | Map of weather stations | Latest weather observations for NSW | Other Formats
Station Details ID: 068072 Name: NOWRA RAN AIR STATION AWS Lat: -34.95 Lon: 150.54 Height: 109.0 m
Data from the previous 72 hours. | See also: Recent months at Nowra
Date/Time
EST
Temp
°C
App
Temp
°C
Dew
Point
°C
Rel
Hum
%
Delta-T
°C
Wind Press
QNH
hPa
Press
MSL
hPa
Rain since
9am
mm
Dir  Spd
km/h
Gust
km/h
Spd
kts
Gust
kts
25/10:00pm 9.4 6.3 3.4 66 2.6 WNW 9 15 5 8 - - 0.0
25/09:30pm 10.4 6.9 3.7 63 3.0 WNW 11 19 6 10 - - 0.0
25/09:00pm 9.5 6.4 3.7 67 2.5 NW 9 13 5 7 - - 0.0
25/08:30pm 10.5 7.0 3.5 62 3.1 NW 11 17 6 9 - - 0.0
25/08:00pm 11.7 6.5 3.5 57 3.6 NW 20 30 11 16 - - 0.0
25/07:30pm 11.9 7.3 3.7 57 3.7 WNW 17 30 9 16 - - 0.0
25/07:00pm 12.1 6.9 3.6 56 3.8 WNW 20 28 11 15 - - 0.0
25/06:30pm 12.1 7.0 3.3 55 3.9 W 19 26 10 14 - - 0.0
25/06:00pm 12.6 7.2 2.7 51 4.4 WNW 20 24 11 13 - - 0.0
25/05:30pm 13.1 7.8 2.9 50 4.5 WNW 20 30 11 16 - - 0.0
25/05:00pm 13.5 8.7 2.4 47 4.9 WNW 17 22 9 12 - - 0.0
25/04:30pm 14.8 9.6 2.7 44 5.4 W 19 28 10 15 - - 0.0
25/04:00pm 16.0 11.2 2.4 40 6.1 W 17 24 9 13 - - 0.0
25/03:30pm 16.8 11.3 1.7 36 6.8 WSW 20 35 11 19 - - 0.0
25/03:00pm 16.9 10.9 1.0 34 7.0 WSW 22 33 12 18 - - 0.0
25/02:30pm 17.1 12.0 0.7 33 7.2 WSW 17 22 9 12 - - 0.0
25/02:00pm 16.9 9.6 0.1 32 7.3 WSW 28 46 15 25 - - 0.0
25/01:30pm 16.8 10.3 0.5 33 7.1 WSW 24 32 13 17 - - 0.0
25/01:00pm 16.3 9.4 0.0 33 7.0 WSW 26 35 14 19 - - 0.0
25/12:30pm 15.8 10.1 0.4 35 6.6 WSW 20 33 11 18 - - 0.0
25/12:00pm 14.8 8.2 -0.1 36 6.3 WSW 24 43 13 23 - - 0.0
25/11:35am 14.5 7.3 0.4 38 6.0 WSW 28 46 15 25 - - 0.0
25/11:30am 14.2 6.1 -0.3 37 6.1 WSW 32 46 17 25 - - 0.0
25/11:26am 14.1 6.3 -0.7 36 6.1 WSW 30 46 16 25 - - 0.0
25/11:00am 13.8 8.2 0.1 39 5.8 WSW 19 28 10 15 1016.5 1016.5 0.0
25/10:30am 12.9 7.4 0.6 43 5.2 WNW 19 30 10 16 1016.7 1016.7 0.0
25/10:00am 12.2 7.0 0.0 43 5.0 W 17 26 9 14 1016.8 1016.8 0.0
25/09:30am 11.3 5.9 1.0 49 4.3 WNW 19 28 10 15 1016.8 1016.8 0.0
25/09:00am 9.9 5.4 2.0 58 3.3 NW 15 20 8 11 1016.7 1016.7 0.0
25/08:30am 8.9 3.9 1.6 60 3.0 NW 17 22 9 12 1016.8 1016.8 0.0
25/08:00am 8.2 3.6 1.8 64 2.6 NW 15 22 8 12 - - 0.0
25/07:30am 7.7 2.7 1.5 65 2.5 WNW 17 24 9 13 1016.9 1016.9 0.0
25/07:00am 7.1 2.2 1.8 69 2.2 WNW 17 26 9 14 1016.7 1016.7 0.0
25/06:30am 6.9 2.0 2.0 71 2.0 WNW 17 20 9 11 1016.7 1016.7 0.0
25/06:00am 6.4 1.6 2.5 76 1.6 WNW 17 20 9 11 1016.5 1016.5 0.0
25/05:30am 6.0 2.1 3.3 83 1.1 WNW 13 19 7 10 1016.4 1016.4 0.0
25/05:00am 3.8 0.1 2.5 91 0.5 WSW 11 13 6 7 1016.2 1016.2 0.0
25/04:30am 5.2 1.2 2.9 85 0.9 W 13 19 7 10 1016.3 1016.3 0.0
25/04:00am 6.6 1.6 3.6 81 1.3 WNW 19 22 10 12 1016.3 1016.3 0.0
25/03:30am 5.9 1.7 3.7 86 0.9 WNW 15 20 8 11 1016.4 1016.4 0.0
25/03:00am 6.1 1.3 4.4 89 0.7 WNW 19 20 10 11 1016.4 1016.4 0.0
25/02:30am 5.9 1.5 4.9 93 0.4 W 17 20 9 11 1016.4 1016.4 0.0
25/02:00am 5.2 1.1 4.6 96 0.3 WNW 15 17 8 9 1016.5 1016.5 0.0
25/01:30am 5.6 1.2 5.0 96 0.3 NW 17 17 9 9 1016.5 1016.5 0.0
25/01:00am 5.9 1.6 5.3 96 0.3 NW 17 19 9 10 1016.7 1016.7 0.0
25/12:30am 6.3 2.5 6.0 98 0.1 NW 15 17 8 9 1016.8 1016.8 0.0
25/12:00am 5.8 2.0 5.7 99 0.0 NW 15 17 8 9 1017.0 1017.0 0.0
 
Date/Time
EST
Temp
°C
App
Temp
°C
Dew
Point
°C
Rel
Hum
%
Delta-T
°C
Wind Press
QNH
hPa
Press
MSL
hPa
Rain since
9am
mm
Dir  Spd
km/h
Gust
km/h
Spd
kts
Gust
kts
24/11:30pm 6.8 3.6 6.7 99 0.0 WNW 13 15 7 8 1017.1 1017.1 0.0
24/11:00pm 5.3 2.9 5.2 99 0.0 WNW 7 11 4 6 1017.4 1017.4 0.0
24/10:30pm 5.7 4.3 5.6 99 0.0 NW 2 7 1 4 1017.4 1017.4 0.0
24/10:00pm 5.6 3.3 5.5 99 0.0 WNW 7 13 4 7 1017.4 1017.4 0.0
24/09:30pm 6.2 4.2 6.1 99 0.0 WNW 6 7 3 4 1017.4 1017.4 0.0
24/09:00pm 6.5 4.3 6.4 99 0.0 W 7 9 4 5 1017.3 1017.3 0.0
24/08:30pm 7.0 5.1 6.9 99 0.0 W 6 9 3 5 1017.2 1017.2 0.0
24/08:00pm 6.7 5.5 6.6 99 0.0 W 2 7 1 4 1017.2 1017.2 0.0
24/07:30pm 7.1 5.0 6.8 98 0.1 WSW 7 9 4 5 1017.2 1017.2 0.0
24/07:00pm 7.4 6.0 7.1 98 0.1 WNW 4 7 2 4 1017.1 1017.1 0.0
24/06:30pm 7.3 5.6 5.9 91 0.6 WSW 4 9 2 5 1017.0 1017.0 0.0
24/06:00pm 9.1 7.2 7.7 91 0.7 WSW 7 11 4 6 1016.7 1016.7 0.0
24/05:30pm 11.5 9.8 8.5 82 1.5 SW 7 11 4 6 1016.4 1016.4 0.0
24/05:00pm 12.4 12.0 8.3 76 2.0 CALM 0 0 0 0 1016.1 1016.1 0.0
24/04:30pm 13.1 10.9 8.0 71 2.5 SSE 9 9 5 5 1015.9 1015.9 0.0
24/04:00pm 13.7 11.2 8.1 69 2.8 S 11 13 6 7 1015.4 1015.4 0.0
24/03:30pm 13.7 10.4 8.1 69 2.8 SSE 15 19 8 10 1015.3 1015.3 0.0
24/03:00pm 14.7 10.6 8.0 64 3.4 SE 19 24 10 13 1015.1 1015.1 0.0
24/02:30pm 16.2 12.5 6.3 52 4.8 SSE 15 20 8 11 1014.5 1014.5 0.0
24/02:00pm 18.2 12.5 0.4 30 7.8 WSW 20 30 11 16 1014.3 1014.3 0.0
24/01:30pm 17.9 12.8 1.0 32 7.5 WSW 17 22 9 12 1014.4 1014.4 0.0
24/01:00pm 17.9 12.6 3.0 37 6.9 WSW 20 28 11 15 1014.6 1014.6 0.0
24/12:30pm 17.5 11.4 3.0 38 6.7 WSW 24 33 13 18 1014.7 1014.7 0.0
24/12:00pm 17.2 11.1 2.8 38 6.6 WSW 24 33 13 18 1015.0 1015.0 0.0
24/11:30am 17.2 10.9 3.5 40 6.4 W 26 37 14 20 1015.1 1015.1 0.0
24/11:00am 16.8 10.8 3.5 41 6.2 W 24 39 13 21 1015.4 1015.4 0.0
24/10:30am 16.0 11.0 4.4 46 5.5 W 20 30 11 16 1015.8 1015.8 0.0
24/10:00am 14.9 9.8 4.3 49 4.9 WNW 20 28 11 15 1016.1 1016.1 0.0
24/09:30am 14.3 9.8 4.0 50 4.7 WNW 17 28 9 15 1015.9 1015.9 0.0
24/09:00am 13.6 8.5 4.2 53 4.3 WNW 20 30 11 16 1015.9 1015.9 0.0
24/08:30am 12.6 7.1 3.8 55 4.0 WNW 22 30 12 16 1015.6 1015.6 0.0
24/08:00am 11.9 6.4 3.9 58 3.6 WNW 22 35 12 19 1015.1 1015.1 0.0
24/07:30am 11.0 5.5 4.0 62 3.1 WNW 22 32 12 17 1014.7 1014.7 0.0
24/07:00am 10.8 5.0 4.3 64 2.9 WNW 24 33 13 18 1014.4 1014.4 0.0
24/06:30am 9.2 5.8 4.2 71 2.2 NW 11 20 6 11 1014.2 1014.2 0.0
24/06:00am 7.7 4.3 3.9 77 1.6 WNW 11 13 6 7 1014.2 1014.2 0.0
24/05:30am 9.8 6.7 3.8 66 2.6 NW 9 13 5 7 1013.9 1013.9 0.0
24/05:00am 9.9 5.8 4.1 67 2.6 W 15 20 8 11 1013.5 1013.5 0.0
24/04:30am 10.8 7.4 3.8 62 3.1 WSW 11 17 6 9 1013.3 1013.3 0.0
24/04:00am 12.2 7.2 3.4 55 3.9 W 19 32 10 17 1013.0 1013.0 0.0
24/03:30am 12.2 4.7 3.7 56 3.8 WNW 32 44 17 24 1012.1 1012.2 0.0
24/03:00am 12.3 5.3 4.0 57 3.8 WNW 30 41 16 22 1012.1 1012.2 0.0
24/02:30am 12.4 5.0 4.1 57 3.8 WNW 32 44 17 24 1012.4 1012.5 0.0
24/02:00am 12.2 4.8 3.9 57 3.7 WNW 32 46 17 25 1012.6 1012.7 0.0
24/01:30am 12.6 5.0 3.8 55 4.0 W 33 44 18 24 1012.6 1012.7 0.0
24/01:15am 12.9 4.9 3.6 53 4.2 WNW 35 54 19 29 1012.5 1012.6 0.0
24/01:00am 12.3 4.9 4.0 57 3.8 WNW 32 46 17 25 1013.1 1013.1 0.0
24/12:30am 12.5 5.1 4.0 56 3.9 WNW 32 46 17 25 1013.2 1013.2 0.0
24/12:19am 12.7 5.3 3.9 55 4.0 WNW 32 50 17 27 1013.2 1013.2 0.0
24/12:00am 12.0 5.4 4.0 58 3.6 WNW 28 35 15 19 1013.3 1013.3 0.0
 
Date/Time
EST
Temp
°C
App
Temp
°C
Dew
Point
°C
Rel
Hum
%
Delta-T
°C
Wind Press
QNH
hPa
Press
MSL
hPa
Rain since
9am
mm
Dir  Spd
km/h
Gust
km/h
Spd
kts
Gust
kts
23/11:30pm 11.9 6.8 4.2 59 3.5 W 20 26 11 14 1013.9 1013.9 0.0
23/11:00pm 11.8 7.4 4.5 61 3.3 W 17 22 9 12 1014.1 1014.1 0.0
23/10:30pm 10.9 6.9 4.8 66 2.8 W 15 19 8 10 1014.1 1014.1 0.0
23/10:00pm 11.0 8.1 4.9 66 2.8 WNW 9 15 5 8 1013.9 1013.9 0.0
23/09:30pm 9.6 7.2 5.2 74 2.0 WNW 7 11 4 6 1013.9 1013.9 0.0
23/09:00pm 9.2 7.7 5.2 76 1.8 NNW 2 9 1 5 1013.4 1013.4 0.0
23/08:30pm 8.3 6.7 4.7 78 1.6 NNW 2 7 1 4 1013.8 1013.8 0.0
23/08:00pm 9.9 7.9 4.5 69 2.4 NNW 4 7 2 4 1014.0 1014.0 0.0
23/07:30pm 10.4 6.8 5.0 69 2.5 NW 13 15 7 8 1014.2 1014.2 0.0
23/07:00pm 11.5 7.8 4.7 63 3.1 NW 13 15 7 8 1014.2 1014.2 0.0
23/06:30pm 13.2 9.1 4.1 54 4.2 WNW 15 19 8 10 1014.2 1014.2 0.0
23/06:00pm 14.1 8.9 3.8 50 4.7 WNW 20 26 11 14 1014.1 1014.1 0.0
23/05:30pm 15.0 9.0 3.5 46 5.3 WNW 24 32 13 17 1014.2 1014.2 0.0
23/05:00pm 14.8 10.7 4.2 49 4.9 WNW 15 20 8 11 1013.9 1013.9 0.0
23/04:30pm 16.3 11.4 4.0 44 5.7 WNW 19 26 10 14 1013.9 1013.9 0.0
23/04:00pm 17.0 11.4 3.7 41 6.2 WNW 22 32 12 17 1013.8 1013.8 0.0
23/03:30pm 16.5 10.4 2.5 39 6.4 WNW 24 33 13 18 1013.7 1013.7 0.0
23/03:21pm 16.6 10.4 2.2 38 6.5 WNW 24 33 13 18 1013.8 1013.8 0.0
23/03:00pm 16.6 13.7 4.6 45 5.7 NW 9 13 5 7 1013.9 1013.9 0.0
23/02:30pm 17.1 12.5 3.8 41 6.2 WNW 17 24 9 13 1013.7 1013.7 0.0
23/02:00pm 17.4 12.9 4.0 41 6.3 NW 17 24 9 13 1013.7 1013.7 0.0
23/01:30pm 17.5 13.9 4.8 43 6.1 NW 13 17 7 9 1014.2 1014.2 0.0
23/01:00pm 17.9 15.2 5.5 44 6.0 NW 9 13 5 7 1014.6 1014.6 0.0
23/12:30pm 16.6 12.6 4.9 46 5.6 WNW 15 24 8 13 1015.2 1015.2 0.0
23/12:00pm 16.4 13.7 5.4 48 5.3 NNW 9 15 5 8 1015.9 1015.9 0.0
23/11:30am 16.7 13.9 6.8 52 4.9 NW 11 17 6 9 1017.1 1017.1 0.0
23/11:00am 16.1 13.0 5.7 50 5.0 NW 11 15 6 8 1017.7 1017.7 0.0
23/10:30am 14.1 12.2 6.5 60 3.7 N 6 9 3 5 1018.5 1018.5 0.0
23/10:00am 12.6 10.4 6.2 65 3.0 N 7 13 4 7 1019.1 1019.2 0.0
23/09:30am 11.5 9.0 6.6 72 2.3 NNW 9 13 5 7 1019.3 1019.4 0.0
23/09:00am 9.8 6.0 6.0 77 1.8 NNW 15 19 8 10 1019.4 1019.5 0.2
23/08:30am 9.2 5.0 5.9 80 1.5 NNW 17 22 9 12 1019.5 1019.6 0.2
23/08:00am 8.5 4.3 5.6 82 1.3 NNW 17 22 9 12 1019.6 1019.7 0.2
23/07:30am 7.8 3.5 5.3 84 1.1 NW 17 20 9 11 1019.4 1019.5 0.2
23/07:00am 7.0 3.6 5.8 92 0.5 NW 13 17 7 9 1019.6 1019.7 0.2
23/06:30am 6.5 3.3 5.0 90 0.7 NW 11 13 6 7 1019.8 1019.9 0.2
23/06:00am 6.7 3.9 5.0 89 0.7 NW 9 13 5 7 1019.3 1019.4 0.2
23/05:30am 6.9 3.3 5.2 89 0.8 NW 13 15 7 8 1019.3 1019.4 0.2
23/05:00am 7.4 3.1 5.4 87 0.9 NW 17 19 9 10 1019.6 1019.7 0.2
23/04:30am 6.7 3.0 6.4 98 0.1 NW 15 17 8 9 1019.9 1020.0 0.2
23/04:00am 3.5 2.0 2.9 96 0.2 CALM 0 0 0 0 1020.0 1020.1 0.2
23/03:30am 5.0 3.3 4.0 93 0.4 WSW 2 6 1 3 1020.8 1020.9 0.2
23/03:00am 7.3 3.4 5.3 87 0.9 NW 15 19 8 10 1020.9 1021.0 0.2
23/02:30am 7.1 2.9 5.7 91 0.6 NW 17 19 9 10 1021.2 1021.3 0.2
23/02:00am 7.1 3.8 6.5 96 0.3 WNW 13 20 7 11 1021.3 1021.4 0.2
23/01:30am 6.5 3.9 6.2 98 0.1 WNW 9 13 5 7 1021.5 1021.6 0.2
23/01:00am 7.1 3.9 7.0 99 0.0 NW 13 15 7 8 1021.8 1021.9 0.0
23/12:30am 7.7 4.6 7.3 97 0.2 WNW 13 15 7 8 1021.9 1022.0 0.0
23/12:00am 8.1 5.1 7.5 96 0.3 WNW 13 15 7 8 1022.2 1022.3 0.0
 
Date/Time
EST
Temp
°C
App
Temp
°C
Dew
Point
°C
Rel
Hum
%
Delta-T
°C
Wind Press
QNH
hPa
Press
MSL
hPa
Rain since
9am
mm
Dir  Spd
km/h
Gust
km/h
Spd
kts
Gust
kts
22/11:30pm 8.8 5.4 7.7 93 0.5 WNW 15 17 8 9 1022.6 1022.7 0.0
22/11:00pm 9.1 6.3 8.6 97 0.2 W 13 17 7 9 1023.2 1023.2 0.0
22/10:30pm 9.7 7.2 9.6 99 0.1 WNW 13 17 7 9 1023.4 1023.4 0.0

Other Formats:

Comma delimited format used in spreadsheet applications
http://www.bom.gov.au/fwo/IDN60801/IDN60801.94750.axf

JavaScript Object Notation format (JSON) in row-major order
http://www.bom.gov.au/fwo/IDN60801/IDN60801.94750.json